createdAt,value
2023-06-20T00:00:20.653Z,21.60
2023-06-20T00:02:48.779Z,24.45
2023-06-20T00:05:16.833Z,22.88
2023-06-20T00:07:44.964Z,22.50
2023-06-20T00:10:13.315Z,21.13
2023-06-20T00:12:42.531Z,26.63
2023-06-20T00:15:11.281Z,23.38
2023-06-20T00:17:40.782Z,24.75
2023-06-20T00:20:10.844Z,25.10
2023-06-20T00:22:39.060Z,27.73
2023-06-20T00:25:07.694Z,26.90
2023-06-20T00:27:35.798Z,25.67
2023-06-20T00:30:03.935Z,25.35
2023-06-20T00:32:32.025Z,26.83
2023-06-20T00:35:01.471Z,28.27
2023-06-20T00:37:29.521Z,26.40
2023-06-20T00:39:57.567Z,26.45
2023-06-20T00:42:26.693Z,28.00
2023-06-20T00:44:54.957Z,27.58
2023-06-20T00:47:23.117Z,31.13
2023-06-20T00:49:51.935Z,28.33
2023-06-20T00:52:23.195Z,29.05
2023-06-20T00:54:51.507Z,33.13
2023-06-20T00:57:21.406Z,29.90
2023-06-20T00:59:50.297Z,29.23
2023-06-20T01:02:19.202Z,36.22
2023-06-20T01:04:48.529Z,34.92
2023-06-20T01:07:25.380Z,33.03
2023-06-20T01:10:01.868Z,38.03
2023-06-20T01:12:37.936Z,32.10
2023-06-20T01:15:14.921Z,39.20
2023-06-20T01:17:49.867Z,34.67
2023-06-20T01:20:26.391Z,35.47
2023-06-20T01:23:03.558Z,33.63
2023-06-20T01:25:41.784Z,33.35
2023-06-20T01:28:15.686Z,36.60
2023-06-20T01:30:50.683Z,39.63
2023-06-20T01:33:24.637Z,37.88
2023-06-20T01:35:52.776Z,34.17
2023-06-20T01:38:27.685Z,37.85
2023-06-20T01:40:57.996Z,38.15
2023-06-20T01:43:27.667Z,36.13
2023-06-20T01:45:58.337Z,37.78
2023-06-20T01:48:28.041Z,41.67
2023-06-20T01:50:56.938Z,38.47
2023-06-20T01:53:31.515Z,37.60
2023-06-20T01:56:04.589Z,37.85
2023-06-20T01:58:35.336Z,40.10
2023-06-20T02:01:04.914Z,40.60
2023-06-20T02:03:34.097Z,36.95
2023-06-20T02:06:03.256Z,38.53
2023-06-20T02:08:33.903Z,38.03
2023-06-20T02:11:02.631Z,39.85
2023-06-20T02:13:32.771Z,38.42
2023-06-20T02:16:03.563Z,40.42
2023-06-20T02:18:33.446Z,37.72
2023-06-20T02:21:06.548Z,38.92
2023-06-20T02:23:39.073Z,40.38
2023-06-20T02:26:10.358Z,43.08
2023-06-20T02:28:42.780Z,39.33
2023-06-20T02:31:15.770Z,38.92
2023-06-20T02:33:45.371Z,38.05
2023-06-20T02:36:14.724Z,36.63
2023-06-20T02:38:44.214Z,37.20
2023-06-20T02:41:12.279Z,39.58
2023-06-20T02:43:40.361Z,36.80
2023-06-20T02:46:15.965Z,35.30
2023-06-20T02:48:52.900Z,34.88
2023-06-20T02:51:25.962Z,35.40
2023-06-20T02:54:00.932Z,33.42
2023-06-20T02:56:32.174Z,38.33
2023-06-20T02:59:04.711Z,31.92
2023-06-20T03:01:34.744Z,34.03
2023-06-20T03:04:09.107Z,33.75
2023-06-20T03:06:39.008Z,32.85
2023-06-20T03:09:08.778Z,34.65
2023-06-20T03:11:37.526Z,34.30
2023-06-20T03:14:06.925Z,33.75
2023-06-20T03:16:35.301Z,35.45
2023-06-20T03:19:05.233Z,33.38
2023-06-20T03:21:33.747Z,32.83
2023-06-20T03:24:04.312Z,32.92
2023-06-20T03:26:34.583Z,31.63
2023-06-20T03:29:02.744Z,32.25
2023-06-20T03:31:31.198Z,37.35
2023-06-20T03:34:01.514Z,38.17
2023-06-20T03:36:30.848Z,32.75
2023-06-20T03:38:59.332Z,35.15
2023-06-20T03:41:28.750Z,32.80
2023-06-20T03:44:03.162Z,33.53
2023-06-20T03:46:31.463Z,36.42
2023-06-20T03:48:59.585Z,35.05
2023-06-20T03:51:27.736Z,32.75
2023-06-20T03:53:56.997Z,33.75
2023-06-20T03:56:25.153Z,36.63
2023-06-20T03:58:53.466Z,33.90
2023-06-20T04:01:25.451Z,34.40
2023-06-20T04:03:56.643Z,34.00
2023-06-20T04:06:31.060Z,36.40
2023-06-20T04:09:00.635Z,31.77
2023-06-20T04:11:28.780Z,34.40
2023-06-20T04:13:56.823Z,31.83
2023-06-20T04:16:26.321Z,34.60
2023-06-20T04:18:54.868Z,32.50
2023-06-20T04:21:25.242Z,31.98
2023-06-20T04:23:53.451Z,30.95
2023-06-20T04:26:21.891Z,30.63
2023-06-20T04:28:49.993Z,29.75
2023-06-20T04:31:18.495Z,30.45
2023-06-20T04:33:48.497Z,30.95
2023-06-20T04:36:16.643Z,31.27
2023-06-20T04:38:47.196Z,31.48
2023-06-20T04:41:15.894Z,31.02
2023-06-20T04:43:45.808Z,31.13
2023-06-20T04:46:16.064Z,28.58
2023-06-20T04:48:46.145Z,30.48
2023-06-20T04:51:17.440Z,28.77
2023-06-20T04:53:45.590Z,27.58
2023-06-20T04:56:17.313Z,27.05
2023-06-20T04:58:46.738Z,26.40
2023-06-20T05:01:16.282Z,26.70
2023-06-20T05:03:46.819Z,25.35
2023-06-20T05:06:19.344Z,28.63
2023-06-20T05:08:49.047Z,25.95
2023-06-20T05:11:17.478Z,26.35
2023-06-20T05:13:45.925Z,26.80
2023-06-20T05:16:14.298Z,25.92
2023-06-20T05:18:45.037Z,25.42
2023-06-20T05:21:13.686Z,25.83
2023-06-20T05:23:43.351Z,28.95
2023-06-20T05:26:12.406Z,24.33
2023-06-20T05:28:40.724Z,24.73
2023-06-20T05:31:12.018Z,25.70
2023-06-20T05:33:40.619Z,28.70
2023-06-20T05:36:09.280Z,28.58
2023-06-20T05:38:38.158Z,23.90
2023-06-20T05:41:07.978Z,25.88
2023-06-20T05:43:36.404Z,30.00
2023-06-20T05:46:04.684Z,25.33
2023-06-20T05:48:34.052Z,24.67
2023-06-20T05:51:04.321Z,26.70
2023-06-20T05:53:32.582Z,24.95
2023-06-20T05:56:00.893Z,24.88
2023-06-20T05:58:30.774Z,25.33
2023-06-20T06:01:00.036Z,25.45
2023-06-20T06:03:28.564Z,24.42
2023-06-20T06:05:57.045Z,24.73
2023-06-20T06:08:26.329Z,25.40
2023-06-20T06:10:54.733Z,26.00
2023-06-20T06:13:22.993Z,25.38
2023-06-20T06:16:00.044Z,26.70
2023-06-20T06:18:31.794Z,25.02
2023-06-20T06:21:00.276Z,24.75
2023-06-20T06:23:28.596Z,24.17
2023-06-20T06:25:57.383Z,24.40
2023-06-20T06:28:27.437Z,24.27
2023-06-20T06:30:57.303Z,22.00
2023-06-20T06:33:25.696Z,24.33
2023-06-20T06:35:56.259Z,22.08
2023-06-20T06:38:26.315Z,23.50
2023-06-20T06:40:55.907Z,24.10
2023-06-20T06:43:24.434Z,27.48
2023-06-20T06:45:52.825Z,24.48
2023-06-20T06:48:22.501Z,25.15
2023-06-20T06:50:51.057Z,25.02
2023-06-20T06:53:20.338Z,26.10
2023-06-20T06:55:48.763Z,22.05
2023-06-20T06:58:17.220Z,23.95
2023-06-20T07:00:45.562Z,22.65
2023-06-20T07:03:14.285Z,23.80
2023-06-20T07:05:44.030Z,20.90
2023-06-20T07:08:12.389Z,21.85
2023-06-20T07:10:40.717Z,26.15
2023-06-20T07:13:09.055Z,21.48
2023-06-20T07:15:37.361Z,23.02
2023-06-20T07:18:05.966Z,23.90
2023-06-20T07:20:34.326Z,21.80
2023-06-20T07:23:04.007Z,22.70
2023-06-20T07:25:32.291Z,25.25
2023-06-20T07:28:00.727Z,23.80
2023-06-20T07:30:29.016Z,21.35
2023-06-20T07:32:57.465Z,23.23
2023-06-20T07:35:25.985Z,23.30
2023-06-20T07:37:54.487Z,22.30
2023-06-20T07:40:24.219Z,23.20
2023-06-20T07:42:52.721Z,23.40
2023-06-20T07:45:21.122Z,21.88
2023-06-20T07:47:49.693Z,25.33
2023-06-20T07:50:18.315Z,23.65
2023-06-20T07:52:46.640Z,20.25
2023-06-20T07:55:28.483Z,25.15
2023-06-20T07:58:00.292Z,23.77
2023-06-20T08:00:29.748Z,24.98
2023-06-20T08:02:58.475Z,22.85
2023-06-20T08:05:27.294Z,25.50
2023-06-20T08:07:55.846Z,23.23
2023-06-20T08:10:24.278Z,26.13
2023-06-20T08:12:53.196Z,24.67
2023-06-20T08:15:23.145Z,24.48
2023-06-20T08:17:51.789Z,28.08
2023-06-20T08:20:21.121Z,33.28
2023-06-20T08:22:49.493Z,24.10
2023-06-20T08:25:18.064Z,28.33
2023-06-20T08:27:46.365Z,25.52
2023-06-20T08:30:15.160Z,26.00
2023-06-20T08:32:45.786Z,26.20
2023-06-20T08:35:14.217Z,29.48
2023-06-20T08:37:42.971Z,30.13
2023-06-20T08:40:16.111Z,27.10
2023-06-20T08:42:45.476Z,25.90
2023-06-20T08:45:13.936Z,28.30
2023-06-20T08:47:42.501Z,29.08
2023-06-20T08:50:13.716Z,27.00
2023-06-20T08:52:49.529Z,28.85
2023-06-20T08:55:28.505Z,28.02
2023-06-20T08:57:59.308Z,26.42
2023-06-20T09:00:30.520Z,25.85
2023-06-20T09:02:59.316Z,25.20
2023-06-20T09:05:33.568Z,27.45
2023-06-20T09:08:02.090Z,25.92
2023-06-20T09:10:30.682Z,25.10
2023-06-20T09:12:59.172Z,25.92
2023-06-20T09:15:29.119Z,24.92
2023-06-20T09:18:00.328Z,23.65
2023-06-20T09:20:31.387Z,25.05
2023-06-20T09:22:59.873Z,24.30
2023-06-20T09:25:29.885Z,25.17
2023-06-20T09:27:59.014Z,23.15
2023-06-20T09:30:32.198Z,24.88
2023-06-20T09:33:05.854Z,27.05
2023-06-20T09:35:36.678Z,23.80
2023-06-20T09:38:06.617Z,21.48
2023-06-20T09:40:44.785Z,21.13
2023-06-20T09:43:13.171Z,20.10
2023-06-20T09:45:41.681Z,18.98
2023-06-20T09:48:11.249Z,19.25
2023-06-20T09:50:42.078Z,20.63
2023-06-20T09:53:18.886Z,20.88
2023-06-20T09:55:48.321Z,20.92
2023-06-20T09:58:21.236Z,21.52
2023-06-20T10:00:51.309Z,21.70
2023-06-20T10:03:19.977Z,20.77
2023-06-20T10:05:50.230Z,20.65
2023-06-20T10:08:20.813Z,20.48
2023-06-20T10:10:49.939Z,23.23
2023-06-20T10:13:20.486Z,21.10
2023-06-20T10:15:50.989Z,20.23
2023-06-20T10:18:37.628Z,23.67
2023-06-20T10:21:14.972Z,24.67
2023-06-20T10:23:43.584Z,21.88
2023-06-20T10:26:12.567Z,26.30
2023-06-20T10:28:41.591Z,22.65
2023-06-20T10:31:09.975Z,22.17
2023-06-20T10:33:40.996Z,23.60
2023-06-20T10:36:12.083Z,23.73
2023-06-20T10:38:45.563Z,23.30
2023-06-20T10:41:15.676Z,26.30
2023-06-20T10:43:52.915Z,22.75
2023-06-20T10:46:23.758Z,23.08
2023-06-20T10:48:52.376Z,22.30
2023-06-20T10:51:22.123Z,27.40
2023-06-20T10:53:50.493Z,22.27
2023-06-20T10:56:26.179Z,20.90
2023-06-20T10:58:54.546Z,23.27
2023-06-20T11:01:28.164Z,25.23
2023-06-20T11:03:57.379Z,21.52
2023-06-20T11:06:30.838Z,23.17
2023-06-20T11:08:59.271Z,21.52
2023-06-20T11:11:34.901Z,25.13
2023-06-20T11:14:12.989Z,23.65
2023-06-20T11:16:41.904Z,22.23
2023-06-20T11:19:19.304Z,23.92
2023-06-20T11:22:02.730Z,24.80
2023-06-20T11:24:32.553Z,27.90
2023-06-20T11:27:13.277Z,23.77
2023-06-20T11:29:41.624Z,21.80
2023-06-20T11:32:10.830Z,24.40
2023-06-20T11:34:55.052Z,22.45
2023-06-20T11:37:25.343Z,23.25
2023-06-20T11:39:54.062Z,24.00
2023-06-20T11:42:22.595Z,22.85
2023-06-20T11:44:51.549Z,22.33
2023-06-20T11:47:20.001Z,22.33
2023-06-20T11:49:48.537Z,24.02
2023-06-20T11:52:16.972Z,21.58
2023-06-20T11:54:50.544Z,24.33
2023-06-20T11:57:27.880Z,22.92
2023-06-20T11:59:56.963Z,20.45
2023-06-20T12:02:28.046Z,22.08
2023-06-20T12:05:00.417Z,21.70
2023-06-20T12:07:29.125Z,21.98
2023-06-20T12:10:07.869Z,24.45
2023-06-20T12:12:36.301Z,21.67
2023-06-20T12:15:05.541Z,20.42
2023-06-20T12:17:33.978Z,21.88
2023-06-20T12:20:02.485Z,20.95
2023-06-20T12:22:31.654Z,21.33
2023-06-20T12:25:02.975Z,23.95
2023-06-20T12:27:31.562Z,22.92
2023-06-20T12:30:00.298Z,22.42
2023-06-20T12:32:28.687Z,27.10
2023-06-20T12:34:57.132Z,23.77
2023-06-20T12:37:26.976Z,21.90
2023-06-20T12:39:55.685Z,19.05
2023-06-20T12:42:26.064Z,21.75
2023-06-20T12:44:54.666Z,18.85
2023-06-20T12:47:23.876Z,20.58
2023-06-20T12:49:52.437Z,20.15
2023-06-20T12:52:21.346Z,21.50
2023-06-20T12:54:49.695Z,19.25
2023-06-20T12:57:18.097Z,18.73
2023-06-20T12:59:47.831Z,18.20
2023-06-20T13:02:16.155Z,19.25
2023-06-20T13:04:44.701Z,18.73
2023-06-20T13:07:13.209Z,18.95
2023-06-20T13:09:41.487Z,16.85
2023-06-20T13:12:10.402Z,21.15
2023-06-20T13:14:38.819Z,17.30
2023-06-20T13:17:08.852Z,19.67
2023-06-20T13:19:37.245Z,19.45
2023-06-20T13:22:06.252Z,19.85
2023-06-20T13:24:34.707Z,20.67
2023-06-20T13:27:03.024Z,20.10
2023-06-20T13:29:31.331Z,19.23
2023-06-20T13:32:00.967Z,20.27
2023-06-20T13:34:30.782Z,18.10
2023-06-20T13:36:59.139Z,18.92
2023-06-20T13:39:32.040Z,16.65
2023-06-20T13:42:01.353Z,16.92
2023-06-20T13:44:30.122Z,19.65
2023-06-20T13:46:58.582Z,19.08
2023-06-20T13:49:27.003Z,17.27
2023-06-20T13:51:56.892Z,21.58
2023-06-20T13:54:25.353Z,21.33
2023-06-20T13:56:53.701Z,20.45
2023-06-20T13:59:23.698Z,19.88
2023-06-20T14:01:52.143Z,19.73
2023-06-20T14:04:20.462Z,20.90
2023-06-20T14:06:48.920Z,23.40
2023-06-20T14:09:18.762Z,19.00
2023-06-20T14:11:47.067Z,19.48
2023-06-20T14:14:15.460Z,20.83
2023-06-20T14:16:43.983Z,18.73
2023-06-20T14:19:13.019Z,17.35
2023-06-20T14:21:41.326Z,21.80
2023-06-20T14:24:09.704Z,18.30
2023-06-20T14:26:40.776Z,17.83
2023-06-20T14:29:12.193Z,17.75
2023-06-20T14:31:40.784Z,17.92
2023-06-20T14:34:09.350Z,17.90
2023-06-20T14:36:38.905Z,19.73
2023-06-20T14:39:07.267Z,16.10
2023-06-20T14:41:35.583Z,15.77
2023-06-20T14:44:05.613Z,17.52
2023-06-20T14:46:33.954Z,17.42
2023-06-20T14:49:02.398Z,17.73
2023-06-20T14:51:33.832Z,16.42
2023-06-20T14:54:02.443Z,16.52
2023-06-20T14:56:30.837Z,17.65
2023-06-20T14:58:59.170Z,16.70
2023-06-20T15:01:29.211Z,15.77
2023-06-20T15:03:58.204Z,17.35
2023-06-20T15:06:26.704Z,16.52
2023-06-20T15:08:55.261Z,17.30
2023-06-20T15:11:23.726Z,16.08
2023-06-20T15:13:52.117Z,17.08
2023-06-20T15:16:20.603Z,18.73
2023-06-20T15:18:50.310Z,15.60
2023-06-20T15:21:18.765Z,20.30
2023-06-20T15:23:47.191Z,14.93
2023-06-20T15:26:15.538Z,17.30
2023-06-20T15:28:44.372Z,14.10
2023-06-20T15:31:13.231Z,17.77
2023-06-20T15:33:41.605Z,15.43
2023-06-20T15:36:11.502Z,15.15
2023-06-20T15:38:39.759Z,15.73
2023-06-20T15:41:08.372Z,15.15
2023-06-20T15:43:38.538Z,17.58
2023-06-20T15:46:09.875Z,15.63
2023-06-20T15:48:55.543Z,16.55
2023-06-20T15:51:26.160Z,14.55
2023-06-20T15:53:54.831Z,15.93
2023-06-20T15:56:23.565Z,14.93
2023-06-20T15:58:52.663Z,16.23
2023-06-20T16:01:21.120Z,14.95
2023-06-20T16:03:49.584Z,15.38
2023-06-20T16:06:18.061Z,14.45
2023-06-20T16:08:47.870Z,13.88
2023-06-20T16:11:17.762Z,15.98
2023-06-20T16:13:46.170Z,15.60
2023-06-20T16:16:14.779Z,16.15
2023-06-20T16:18:43.364Z,16.63
2023-06-20T16:21:14.996Z,14.93
2023-06-20T16:23:43.880Z,17.85
2023-06-20T16:26:14.176Z,14.25
2023-06-20T16:28:42.619Z,15.10
2023-06-20T16:31:11.089Z,15.65
2023-06-20T16:33:49.293Z,14.77
2023-06-20T16:36:19.273Z,14.40
2023-06-20T16:38:47.622Z,16.58
2023-06-20T16:41:17.327Z,14.68
2023-06-20T16:43:45.682Z,17.60
2023-06-20T16:46:14.391Z,14.57
2023-06-20T16:48:42.873Z,17.27
2023-06-20T16:51:11.784Z,15.95
2023-06-20T16:53:41.988Z,14.05
2023-06-20T16:56:10.404Z,14.15
2023-06-20T16:58:42.208Z,14.43
2023-06-20T17:01:11.889Z,14.13
2023-06-20T17:03:40.873Z,13.95
2023-06-20T17:06:09.241Z,17.58
2023-06-20T17:08:37.548Z,16.60
2023-06-20T17:11:06.087Z,16.55
2023-06-20T17:13:34.472Z,16.25
2023-06-20T17:16:05.075Z,15.20
2023-06-20T17:18:33.478Z,13.48
2023-06-20T17:21:03.188Z,14.07
2023-06-20T17:23:31.746Z,14.57
2023-06-20T17:26:00.015Z,17.05
2023-06-20T17:28:28.369Z,14.35
2023-06-20T17:30:57.361Z,14.20
2023-06-20T17:33:28.163Z,14.80
2023-06-20T17:35:57.409Z,16.17
2023-06-20T17:38:25.765Z,18.20
2023-06-20T17:40:54.497Z,15.43
2023-06-20T17:43:23.843Z,14.52
2023-06-20T17:45:52.212Z,14.65
2023-06-20T17:48:20.591Z,15.05
2023-06-20T17:50:50.457Z,15.77
2023-06-20T17:53:18.778Z,17.27
2023-06-20T17:55:47.158Z,13.70
2023-06-20T17:58:15.486Z,15.80
2023-06-20T18:00:43.897Z,15.15
2023-06-20T18:03:12.386Z,14.65
2023-06-20T18:05:40.721Z,19.83
2023-06-20T18:08:10.528Z,15.23
2023-06-20T18:10:39.190Z,14.82
2023-06-20T18:13:07.578Z,18.60
2023-06-20T18:15:35.880Z,18.23
2023-06-20T18:18:04.392Z,15.48
2023-06-20T18:20:32.855Z,15.25
2023-06-20T18:23:01.199Z,13.88
2023-06-20T18:25:30.913Z,16.05
2023-06-20T18:27:59.304Z,16.15
2023-06-20T18:30:28.204Z,14.38
2023-06-20T18:32:56.604Z,15.93
2023-06-20T18:35:25.064Z,15.30
2023-06-20T18:37:53.364Z,15.23
2023-06-20T18:40:21.636Z,16.45
2023-06-20T18:42:52.097Z,16.40
2023-06-20T18:45:20.416Z,15.18
2023-06-20T18:47:48.813Z,15.07
2023-06-20T18:50:17.404Z,18.05
2023-06-20T18:52:45.713Z,16.88
2023-06-20T18:55:14.025Z,14.15
2023-06-20T18:57:42.323Z,14.57
2023-06-20T19:00:13.413Z,15.88
2023-06-20T19:02:41.923Z,15.40
2023-06-20T19:05:10.634Z,15.82
2023-06-20T19:07:38.929Z,14.52
2023-06-20T19:10:12.183Z,16.63
2023-06-20T19:12:40.689Z,15.73
2023-06-20T19:15:09.719Z,17.42
2023-06-20T19:17:42.110Z,15.13
2023-06-20T19:20:11.688Z,14.55
2023-06-20T19:22:40.050Z,15.50
2023-06-20T19:25:08.883Z,20.05
2023-06-20T19:27:37.754Z,16.25
2023-06-20T19:30:07.039Z,15.68
2023-06-20T19:32:35.470Z,15.63
2023-06-20T19:35:05.541Z,16.70
2023-06-20T19:37:33.978Z,15.95
2023-06-20T19:40:03.568Z,13.50
2023-06-20T19:42:32.989Z,17.17
2023-06-20T19:45:01.571Z,14.93
2023-06-20T19:47:29.937Z,23.40
2023-06-20T19:49:58.522Z,20.40
2023-06-20T19:52:28.232Z,1.02
2023-06-20T19:54:56.827Z,1.58
2023-06-20T19:57:26.356Z,1.08
2023-06-20T19:59:55.314Z,0.47
2023-06-20T20:02:27.371Z,1.48
2023-06-20T20:04:57.112Z,1.50
2023-06-20T20:07:25.485Z,0.80
2023-06-20T20:09:55.216Z,0.30
2023-06-20T20:12:23.698Z,1.05
2023-06-20T20:14:52.613Z,1.10
2023-06-20T20:17:23.402Z,3.03
2023-06-20T20:19:51.879Z,0.47
2023-06-20T20:22:20.149Z,0.70
2023-06-20T20:25:05.929Z,0.57
2023-06-20T20:27:38.153Z,2.53
2023-06-20T20:30:07.615Z,0.30
2023-06-20T20:32:36.086Z,8.93
2023-06-20T20:35:04.937Z,0.43
2023-06-20T20:37:33.227Z,0.57
2023-06-20T20:40:01.537Z,0.30
2023-06-20T20:42:29.996Z,1.40
2023-06-20T20:44:59.814Z,1.42
2023-06-20T20:47:28.206Z,3.03
2023-06-20T20:49:57.767Z,1.30
2023-06-20T20:52:26.135Z,0.47
2023-06-20T20:54:54.574Z,0.45
2023-06-20T20:57:23.222Z,1.77
2023-06-20T20:59:51.610Z,0.30
2023-06-20T21:02:21.565Z,0.38
2023-06-20T21:04:51.079Z,0.88
2023-06-20T21:07:19.483Z,0.52
2023-06-20T21:09:52.381Z,1.00
2023-06-20T21:12:20.791Z,0.93
2023-06-20T21:14:49.300Z,1.40
2023-06-20T21:17:17.711Z,0.40
2023-06-20T21:19:47.615Z,2.72
2023-06-20T21:22:16.078Z,0.20
2023-06-20T21:24:45.009Z,0.40
2023-06-20T21:27:13.791Z,0.47
2023-06-20T21:29:42.261Z,0.38
2023-06-20T21:32:10.926Z,1.33
2023-06-20T21:34:42.611Z,1.08
2023-06-20T21:37:12.462Z,0.38
2023-06-20T21:39:40.830Z,1.83
2023-06-20T21:42:09.402Z,0.40
2023-06-20T21:44:37.899Z,0.95
2023-06-20T21:47:06.843Z,0.22
2023-06-20T21:49:35.222Z,0.52
2023-06-20T21:52:04.764Z,0.75
2023-06-20T21:54:34.662Z,0.10
2023-06-20T21:57:03.048Z,0.85
2023-06-20T21:59:32.133Z,1.33
2023-06-20T22:02:02.277Z,0.30
2023-06-20T22:04:30.559Z,1.80
2023-06-20T22:06:58.955Z,1.33
2023-06-20T22:09:27.228Z,0.30
2023-06-20T22:11:58.407Z,0.82
2023-06-20T22:14:27.412Z,1.92
2023-06-20T22:16:55.770Z,1.95
2023-06-20T22:19:24.085Z,1.35
2023-06-20T22:21:52.449Z,0.68
2023-06-20T22:24:20.793Z,0.40
2023-06-20T22:26:50.400Z,0.63
2023-06-20T22:29:20.373Z,0.60
2023-06-20T22:31:48.739Z,0.47
2023-06-20T22:34:17.320Z,0.50
2023-06-20T22:36:45.742Z,0.35
2023-06-20T22:39:14.621Z,0.25
2023-06-20T22:41:43.182Z,1.88
2023-06-20T22:44:11.499Z,0.50
2023-06-20T22:46:41.818Z,1.17
2023-06-20T22:49:10.161Z,0.73
2023-06-20T22:51:38.534Z,1.85
2023-06-20T22:54:08.322Z,0.50
2023-06-20T22:56:37.601Z,1.50
2023-06-20T22:59:06.040Z,0.47
2023-06-20T23:01:34.491Z,0.40
2023-06-20T23:04:04.445Z,0.65
2023-06-20T23:06:32.750Z,0.95
2023-06-20T23:09:01.114Z,0.68
2023-06-20T23:11:29.491Z,0.50
2023-06-20T23:13:57.834Z,0.90
2023-06-20T23:16:26.177Z,0.85
2023-06-20T23:18:55.374Z,1.80
2023-06-20T23:21:25.494Z,0.95
2023-06-20T23:23:54.489Z,0.98
2023-06-20T23:26:23.666Z,0.38
2023-06-20T23:28:52.440Z,0.40
2023-06-20T23:31:22.601Z,0.75
2023-06-20T23:33:51.172Z,0.80
2023-06-20T23:36:19.581Z,2.63
2023-06-20T23:38:49.290Z,0.98
2023-06-20T23:41:18.164Z,1.33
2023-06-20T23:43:46.752Z,1.70
2023-06-20T23:46:15.591Z,0.32
2023-06-20T23:48:44.209Z,1.67
2023-06-20T23:51:12.630Z,0.82
2023-06-20T23:53:40.975Z,0.77
2023-06-20T23:56:10.668Z,0.80
2023-06-20T23:58:39.122Z,2.80
